createdAt,value
2022-09-04T00:00:01.915Z,26.0100
2022-09-04T00:00:13.045Z,26.0100
2022-09-04T00:00:24.356Z,26.0000
2022-09-04T00:00:35.739Z,26.0000
2022-09-04T00:00:46.870Z,26.0000
2022-09-04T00:00:58.001Z,26.0000
2022-09-04T00:01:09.137Z,25.9900
2022-09-04T00:01:20.276Z,25.9900
2022-09-04T00:01:31.414Z,25.9800
2022-09-04T00:01:45.081Z,25.9800
2022-09-04T00:01:56.568Z,25.9800
2022-09-04T00:02:07.708Z,25.9700
2022-09-04T00:02:18.845Z,25.9800
2022-09-04T00:02:30.124Z,25.9800
2022-09-04T00:02:41.366Z,25.9900
2022-09-04T00:02:52.487Z,25.9900
2022-09-04T00:03:03.632Z,25.9900
2022-09-04T00:03:14.767Z,25.9900
2022-09-04T00:03:25.894Z,25.9800
2022-09-04T00:03:37.112Z,25.9800
2022-09-04T00:03:48.311Z,25.9800
2022-09-04T00:03:59.595Z,25.9800
2022-09-04T00:04:10.853Z,25.9800
2022-09-04T00:04:22.124Z,25.9800
2022-09-04T00:04:33.542Z,25.9800
2022-09-04T00:04:44.865Z,25.9700
2022-09-04T00:04:56.183Z,25.9800
2022-09-04T00:05:07.746Z,25.9800
2022-09-04T00:05:20.111Z,25.9800
2022-09-04T00:05:31.728Z,25.9800
2022-09-04T00:05:42.937Z,25.9700
2022-09-04T00:05:54.136Z,25.9600
2022-09-04T00:06:05.329Z,25.9500
2022-09-04T00:06:16.461Z,25.9500
2022-09-04T00:06:27.601Z,25.9600
2022-09-04T00:06:38.864Z,25.9600
2022-09-04T00:06:50.017Z,25.9600
2022-09-04T00:07:01.149Z,25.9600
2022-09-04T00:07:12.266Z,25.9600
2022-09-04T00:07:23.398Z,25.9600
2022-09-04T00:07:34.533Z,25.9600
2022-09-04T00:07:45.667Z,25.9700
2022-09-04T00:07:56.797Z,25.9700
2022-09-04T00:08:07.918Z,25.9800
2022-09-04T00:08:19.092Z,25.9900
2022-09-04T00:08:30.228Z,26.0000
2022-09-04T00:08:41.547Z,26.0100
2022-09-04T00:08:52.688Z,26.0200
2022-09-04T00:09:03.894Z,26.0200
2022-09-04T00:09:15.104Z,26.0300
2022-09-04T00:09:26.293Z,26.0300
2022-09-04T00:09:37.428Z,26.0400
2022-09-04T00:09:48.537Z,26.0400
2022-09-04T00:09:59.686Z,26.0400
2022-09-04T00:10:10.817Z,26.0400
2022-09-04T00:10:21.974Z,26.0500
2022-09-04T00:10:33.186Z,26.0500
2022-09-04T00:10:44.522Z,26.0500
2022-09-04T00:10:55.663Z,26.0600
2022-09-04T00:11:06.801Z,26.0700
2022-09-04T00:11:17.972Z,26.0700
2022-09-04T00:11:29.102Z,26.0800
2022-09-04T00:11:40.225Z,26.0900
2022-09-04T00:11:51.344Z,26.1000
2022-09-04T00:12:02.472Z,26.1100
2022-09-04T00:12:13.664Z,26.1200
2022-09-04T00:12:26.855Z,26.1200
2022-09-04T00:12:38.287Z,26.1300
2022-09-04T00:12:49.567Z,26.1200
2022-09-04T00:13:00.709Z,26.1300
2022-09-04T00:13:11.892Z,26.1300
2022-09-04T00:13:23.027Z,26.1200
2022-09-04T00:13:34.168Z,26.1200
2022-09-04T00:13:45.324Z,26.1100
2022-09-04T00:13:56.592Z,26.1000
2022-09-04T00:14:07.712Z,26.1000
2022-09-04T00:14:18.846Z,26.1000
2022-09-04T00:14:29.980Z,26.1100
2022-09-04T00:14:41.176Z,26.1200
2022-09-04T00:14:52.457Z,26.1200
2022-09-04T00:15:03.574Z,26.1200
2022-09-04T00:15:14.711Z,26.1200
2022-09-04T00:15:25.837Z,26.1200
2022-09-04T00:15:36.969Z,26.1100
2022-09-04T00:15:48.092Z,26.1100
2022-09-04T00:15:59.997Z,26.1200
2022-09-04T00:16:11.162Z,26.1300
2022-09-04T00:16:22.323Z,26.1300
2022-09-04T00:16:33.533Z,26.1400
2022-09-04T00:16:44.769Z,26.1400
2022-09-04T00:16:56.076Z,26.1500
2022-09-04T00:17:07.218Z,26.1500
2022-09-04T00:17:18.358Z,26.1600
2022-09-04T00:17:29.499Z,26.1600
2022-09-04T00:17:40.620Z,26.1700
2022-09-04T00:17:51.756Z,26.1700
2022-09-04T00:18:02.890Z,26.1800
2022-09-04T00:18:14.027Z,26.1800
2022-09-04T00:18:25.334Z,26.1800
2022-09-04T00:18:36.555Z,26.1900
2022-09-04T00:18:47.726Z,26.1900
2022-09-04T00:18:58.988Z,26.1900
2022-09-04T00:19:10.121Z,26.1800
2022-09-04T00:19:21.246Z,26.1800
2022-09-04T00:19:32.378Z,26.1700
2022-09-04T00:19:43.588Z,26.1600
2022-09-04T00:19:54.775Z,26.1500
2022-09-04T00:20:05.892Z,26.1300
2022-09-04T00:20:17.022Z,26.1100
2022-09-04T00:20:28.150Z,26.1000
2022-09-04T00:20:39.286Z,26.0800
2022-09-04T00:20:50.462Z,26.0800
2022-09-04T00:21:01.798Z,26.0800
2022-09-04T00:21:12.935Z,26.0700
2022-09-04T00:21:24.064Z,26.0700
2022-09-04T00:21:35.257Z,26.0600
2022-09-04T00:21:46.376Z,26.0600
2022-09-04T00:21:57.516Z,26.0600
2022-09-04T00:22:08.648Z,26.0600
2022-09-04T00:22:19.797Z,26.0500
2022-09-04T00:22:30.916Z,26.0500
2022-09-04T00:22:42.048Z,26.0500
2022-09-04T00:22:53.184Z,26.0500
2022-09-04T00:23:04.684Z,26.0600
2022-09-04T00:23:15.824Z,26.0600
2022-09-04T00:23:26.957Z,26.0500
2022-09-04T00:23:38.140Z,26.0400
2022-09-04T00:23:49.379Z,26.0400
2022-09-04T00:24:00.536Z,26.0500
2022-09-04T00:24:11.738Z,26.0500
2022-09-04T00:24:22.934Z,26.0600
2022-09-04T00:24:34.139Z,26.0600
2022-09-04T00:24:45.278Z,26.0600
2022-09-04T00:24:56.419Z,26.0600
2022-09-04T00:25:07.706Z,26.0500
2022-09-04T00:25:18.851Z,26.0500
2022-09-04T00:25:29.987Z,26.0500
2022-09-04T00:25:41.109Z,26.0400
2022-09-04T00:25:52.239Z,26.0300
2022-09-04T00:26:03.413Z,26.0200
2022-09-04T00:26:14.620Z,26.0100
2022-09-04T00:26:27.992Z,26.0100
2022-09-04T00:26:39.128Z,26.0100
2022-09-04T00:26:50.312Z,26.0100
2022-09-04T00:27:01.426Z,26.0100
2022-09-04T00:27:12.712Z,26.0000
2022-09-04T00:27:23.850Z,25.9900
2022-09-04T00:27:35.930Z,25.9800
2022-09-04T00:27:47.238Z,25.9800
2022-09-04T00:27:58.365Z,25.9800
2022-09-04T00:28:09.518Z,25.9800
2022-09-04T00:28:20.756Z,25.9800
2022-09-04T00:28:31.944Z,25.9900
2022-09-04T00:28:43.084Z,25.9900
2022-09-04T00:28:54.339Z,25.9900
2022-09-04T00:29:05.479Z,25.9800
2022-09-04T00:29:16.765Z,25.9800
2022-09-04T00:29:27.893Z,25.9800
2022-09-04T00:29:39.024Z,25.9800
2022-09-04T00:29:50.160Z,25.9800
2022-09-04T00:30:01.292Z,25.9700
2022-09-04T00:30:12.425Z,25.9700
2022-09-04T00:30:23.574Z,25.9700
2022-09-04T00:30:34.761Z,25.9700
2022-09-04T00:30:45.930Z,25.9600
2022-09-04T00:30:57.064Z,25.9600
2022-09-04T00:31:08.202Z,25.9600
2022-09-04T00:31:19.598Z,25.9600
2022-09-04T00:31:30.780Z,25.9600
2022-09-04T00:31:41.907Z,25.9700
2022-09-04T00:31:53.054Z,25.9800
2022-09-04T00:32:04.186Z,25.9900
2022-09-04T00:32:15.325Z,26.0100
2022-09-04T00:32:26.458Z,26.0100
2022-09-04T00:32:37.652Z,26.0200
2022-09-04T00:32:48.781Z,26.0300
2022-09-04T00:32:59.923Z,26.0200
2022-09-04T00:33:11.045Z,26.0100
2022-09-04T00:33:22.333Z,26.0000
2022-09-04T00:33:33.482Z,25.9800
2022-09-04T00:33:44.597Z,25.9700
2022-09-04T00:33:55.779Z,25.9600
2022-09-04T00:34:06.938Z,25.9500
2022-09-04T00:34:18.146Z,25.9600
2022-09-04T00:34:29.334Z,25.9500
2022-09-04T00:34:40.468Z,25.9500
2022-09-04T00:34:51.595Z,25.9400
2022-09-04T00:35:02.744Z,25.9300
2022-09-04T00:35:13.864Z,25.9200
2022-09-04T00:35:25.396Z,25.9200
2022-09-04T00:35:36.528Z,25.9300
2022-09-04T00:35:47.660Z,25.9400
2022-09-04T00:35:58.798Z,25.9500
2022-09-04T00:36:09.938Z,25.9500
2022-09-04T00:36:21.076Z,25.9500
2022-09-04T00:36:32.196Z,25.9600
2022-09-04T00:36:46.942Z,25.9600
2022-09-04T00:37:00.359Z,25.9500
2022-09-04T00:37:11.490Z,25.9200
2022-09-04T00:37:22.623Z,25.9100
2022-09-04T00:37:33.897Z,25.9000
2022-09-04T00:37:45.038Z,25.8900
2022-09-04T00:37:56.178Z,25.8900
2022-09-04T00:38:07.309Z,25.9000
2022-09-04T00:38:18.447Z,25.9100
2022-09-04T00:38:29.577Z,25.9200
2022-09-04T00:38:40.708Z,25.9300
2022-09-04T00:38:51.841Z,25.9400
2022-09-04T00:39:02.991Z,25.9500
2022-09-04T00:39:14.170Z,25.9500
2022-09-04T00:39:25.316Z,25.9400
2022-09-04T00:39:36.713Z,25.9400
2022-09-04T00:39:47.858Z,25.9400
2022-09-04T00:39:59.055Z,25.9300
2022-09-04T00:40:10.202Z,25.9300
2022-09-04T00:40:21.328Z,25.9200
2022-09-04T00:40:32.456Z,25.9100
2022-09-04T00:40:43.597Z,25.9000
2022-09-04T00:40:54.720Z,25.9000
2022-09-04T00:41:05.861Z,25.9100
2022-09-04T00:41:17.017Z,25.9200
2022-09-04T00:41:28.143Z,25.9300
2022-09-04T00:41:39.421Z,25.9400
2022-09-04T00:41:50.618Z,25.9500
2022-09-04T00:42:01.741Z,25.9500
2022-09-04T00:42:12.857Z,25.9600
2022-09-04T00:42:23.992Z,25.9700
2022-09-04T00:42:35.135Z,25.9800
2022-09-04T00:42:46.296Z,25.9800
2022-09-04T00:42:57.429Z,25.9800
2022-09-04T00:43:08.575Z,25.9700
2022-09-04T00:43:19.696Z,25.9700
2022-09-04T00:43:30.829Z,25.9700
2022-09-04T00:43:42.108Z,25.9800
2022-09-04T00:43:53.247Z,25.9800
2022-09-04T00:44:04.406Z,25.9900
2022-09-04T00:44:15.578Z,26.0100
2022-09-04T00:44:26.721Z,26.0100
2022-09-04T00:44:37.836Z,26.0100
2022-09-04T00:44:48.988Z,26.0100
2022-09-04T00:45:01.986Z,26.0000
2022-09-04T00:45:16.619Z,25.9800
2022-09-04T00:45:28.017Z,25.9800
2022-09-04T00:45:39.148Z,25.9700
2022-09-04T00:45:50.503Z,25.9800
2022-09-04T00:46:01.684Z,25.9800
2022-09-04T00:46:12.870Z,25.9800
2022-09-04T00:46:24.096Z,25.9700
2022-09-04T00:46:35.232Z,25.9600
2022-09-04T00:46:46.360Z,25.9600
2022-09-04T00:46:57.497Z,25.9600
2022-09-04T00:47:08.695Z,25.9600
2022-09-04T00:47:19.898Z,25.9700
2022-09-04T00:47:31.091Z,25.9900
2022-09-04T00:47:42.222Z,25.9900
2022-09-04T00:47:53.498Z,25.9900
2022-09-04T00:48:04.703Z,25.9800
2022-09-04T00:48:15.899Z,25.9700
2022-09-04T00:48:27.096Z,25.9700
2022-09-04T00:48:38.226Z,25.9700
2022-09-04T00:48:49.359Z,25.9700
2022-09-04T00:49:00.484Z,25.9700
2022-09-04T00:49:11.640Z,25.9700
2022-09-04T00:49:22.770Z,25.9700
2022-09-04T00:49:33.974Z,25.9700
2022-09-04T00:49:45.120Z,25.9700
2022-09-04T00:49:56.399Z,25.9600
2022-09-04T00:50:07.590Z,25.9600
2022-09-04T00:50:18.774Z,25.9700
2022-09-04T00:50:29.972Z,25.9700
2022-09-04T00:50:41.183Z,25.9600
2022-09-04T00:50:52.394Z,25.9500
2022-09-04T00:51:03.577Z,25.9400
2022-09-04T00:51:14.701Z,25.9300
2022-09-04T00:51:25.838Z,25.9200
2022-09-04T00:51:36.968Z,25.9200
2022-09-04T00:51:48.095Z,25.9200
2022-09-04T00:51:59.397Z,25.9200
2022-09-04T00:52:10.547Z,25.9300
2022-09-04T00:52:21.671Z,25.9300
2022-09-04T00:52:38.625Z,25.9300
2022-09-04T00:52:49.749Z,25.9000
2022-09-04T00:53:06.775Z,25.9000
2022-09-04T00:53:18.968Z,25.8900
2022-09-04T00:53:30.137Z,25.9000
2022-09-04T00:53:41.334Z,25.9200
2022-09-04T00:53:52.537Z,25.9300
2022-09-04T00:54:03.671Z,25.9400
2022-09-04T00:54:14.961Z,25.9500
2022-09-04T00:54:26.139Z,25.9600
2022-09-04T00:54:37.341Z,25.9700
2022-09-04T00:54:48.473Z,25.9700
2022-09-04T00:54:59.598Z,25.9700
2022-09-04T00:55:10.741Z,25.9600
2022-09-04T00:55:21.866Z,25.9500
2022-09-04T00:55:33.002Z,25.9500
2022-09-04T00:55:44.209Z,25.9600
2022-09-04T00:55:56.377Z,25.9600
2022-09-04T00:56:07.574Z,25.9500
2022-09-04T00:56:18.861Z,25.9400
2022-09-04T00:56:29.979Z,25.9300
2022-09-04T00:56:41.181Z,25.9200
2022-09-04T00:56:52.298Z,25.9200
2022-09-04T00:57:03.424Z,25.9200
2022-09-04T00:57:14.558Z,25.9300
2022-09-04T00:57:25.688Z,25.9400
2022-09-04T00:57:36.861Z,25.9400
2022-09-04T00:57:48.069Z,25.9500
2022-09-04T00:57:59.764Z,25.9500
2022-09-04T00:58:10.899Z,25.9500
2022-09-04T00:58:22.205Z,25.9500
2022-09-04T00:58:33.324Z,25.9600
2022-09-04T00:58:44.449Z,25.9600
2022-09-04T00:58:55.582Z,25.9700
2022-09-04T00:59:06.777Z,25.9800
2022-09-04T00:59:18.020Z,25.9900
2022-09-04T00:59:29.178Z,25.9900
2022-09-04T00:59:40.374Z,26.0000
2022-09-04T00:59:51.512Z,26.0000
2022-09-04T01:00:02.644Z,26.0000
2022-09-04T01:00:13.783Z,26.0100
2022-09-04T01:00:25.062Z,26.0200
2022-09-04T01:00:36.211Z,26.0200
2022-09-04T01:00:47.412Z,26.0200
2022-09-04T01:00:58.723Z,26.0100
2022-09-04T01:01:10.101Z,26.0100
2022-09-04T01:01:21.444Z,26.0200
2022-09-04T01:01:32.849Z,26.0300
2022-09-04T01:01:48.186Z,26.0300
2022-09-04T01:01:59.524Z,26.0100
2022-09-04T01:02:10.907Z,26.0100
2022-09-04T01:02:22.131Z,26.0000
2022-09-04T01:02:33.461Z,25.9900
2022-09-04T01:02:44.619Z,25.9700
2022-09-04T01:02:55.758Z,25.9500
2022-09-04T01:03:06.887Z,25.9400
2022-09-04T01:03:18.019Z,25.9400
2022-09-04T01:03:31.648Z,25.9400
2022-09-04T01:03:42.791Z,25.9300
2022-09-04T01:03:53.920Z,25.9400
2022-09-04T01:04:06.317Z,25.9500
2022-09-04T01:04:18.265Z,25.9500
2022-09-04T01:04:29.411Z,25.9500
2022-09-04T01:04:40.704Z,25.9700
2022-09-04T01:04:51.773Z,25.9800
2022-09-04T01:05:02.939Z,25.9900
2022-09-04T01:05:19.678Z,26.0000
2022-09-04T01:05:31.178Z,26.0000
2022-09-04T01:05:42.313Z,25.9900
2022-09-04T01:05:54.558Z,26.0000
2022-09-04T01:06:05.687Z,26.0100
2022-09-04T01:06:16.861Z,26.0200
2022-09-04T01:06:28.075Z,26.0300
2022-09-04T01:06:40.062Z,26.0300
2022-09-04T01:06:51.209Z,26.0200
2022-09-04T01:07:02.474Z,26.0200
2022-09-04T01:07:13.698Z,26.0100
2022-09-04T01:07:24.838Z,26.0000
2022-09-04T01:07:35.974Z,26.0000
2022-09-04T01:07:47.117Z,26.0100
2022-09-04T01:07:58.298Z,26.0100
2022-09-04T01:08:12.245Z,26.0100
2022-09-04T01:08:26.779Z,26.0100
2022-09-04T01:08:37.896Z,25.9800
2022-09-04T01:08:49.018Z,25.9800
2022-09-04T01:09:06.047Z,25.9900
2022-09-04T01:09:17.327Z,25.9800
2022-09-04T01:09:28.485Z,25.9900
2022-09-04T01:09:39.624Z,26.0000
2022-09-04T01:09:50.761Z,26.0100
2022-09-04T01:10:01.895Z,26.0100
2022-09-04T01:10:13.024Z,26.0000
2022-09-04T01:10:24.216Z,26.0000
2022-09-04T01:10:35.432Z,25.9900
2022-09-04T01:10:46.607Z,25.9900
2022-09-04T01:10:57.742Z,25.9800
2022-09-04T01:11:08.876Z,25.9700
2022-09-04T01:11:20.153Z,25.9700
2022-09-04T01:11:31.279Z,25.9800
2022-09-04T01:11:42.410Z,25.9800
2022-09-04T01:11:53.535Z,25.9800
2022-09-04T01:12:04.697Z,25.9800
2022-09-04T01:12:15.836Z,25.9800
2022-09-04T01:12:26.961Z,25.9900
2022-09-04T01:12:38.094Z,25.9900
2022-09-04T01:12:49.234Z,25.9900
2022-09-04T01:13:00.364Z,25.9900
2022-09-04T01:13:11.509Z,25.9800
2022-09-04T01:13:22.760Z,25.9800
2022-09-04T01:13:33.905Z,25.9900
2022-09-04T01:13:46.348Z,26.0000
2022-09-04T01:13:57.498Z,26.0000
2022-09-04T01:14:08.622Z,26.0100
2022-09-04T01:14:19.758Z,26.0200
2022-09-04T01:14:30.971Z,26.0300
2022-09-04T01:14:42.139Z,26.0400
2022-09-04T01:14:53.429Z,26.0400
2022-09-04T01:15:04.533Z,26.0300
2022-09-04T01:15:15.681Z,26.0300
2022-09-04T01:15:26.966Z,26.0300
2022-09-04T01:15:38.138Z,26.0200
2022-09-04T01:15:49.341Z,26.0100
2022-09-04T01:16:00.684Z,26.0100
2022-09-04T01:16:11.834Z,26.0100
2022-09-04T01:16:22.982Z,26.0100
2022-09-04T01:16:34.219Z,26.0200
2022-09-04T01:16:45.440Z,26.0300
2022-09-04T01:16:56.683Z,26.0300
2022-09-04T01:17:07.789Z,26.0200
2022-09-04T01:17:18.933Z,26.0200
2022-09-04T01:17:30.286Z,26.0300
2022-09-04T01:17:41.427Z,26.0300
2022-09-04T01:17:52.550Z,26.0300
2022-09-04T01:18:03.743Z,26.0300
2022-09-04T01:18:14.941Z,26.0200
2022-09-04T01:18:26.244Z,26.0200
2022-09-04T01:18:37.390Z,26.0200
2022-09-04T01:18:48.522Z,26.0200
2022-09-04T01:18:59.656Z,26.0200
2022-09-04T01:19:10.795Z,26.0300
2022-09-04T01:19:21.920Z,26.0400
2022-09-04T01:19:33.241Z,26.0500
2022-09-04T01:19:44.374Z,26.0600
2022-09-04T01:19:55.492Z,26.0700
2022-09-04T01:20:06.616Z,26.0700
2022-09-04T01:20:17.820Z,26.0800
2022-09-04T01:20:29.019Z,26.0900
2022-09-04T01:20:40.218Z,26.0900
2022-09-04T01:20:52.635Z,26.0800
2022-09-04T01:21:03.775Z,26.0600
2022-09-04T01:21:14.914Z,26.0600
2022-09-04T01:21:26.060Z,26.0700
2022-09-04T01:21:37.358Z,26.0700
2022-09-04T01:21:48.490Z,26.0700
2022-09-04T01:21:59.610Z,26.0600
2022-09-04T01:22:10.788Z,26.0600
2022-09-04T01:22:21.980Z,26.0600
2022-09-04T01:22:33.171Z,26.0600
2022-09-04T01:22:44.300Z,26.0600
2022-09-04T01:22:55.433Z,26.0500
2022-09-04T01:23:06.563Z,26.0300
2022-09-04T01:23:17.683Z,26.0100
2022-09-04T01:23:28.851Z,25.9900
2022-09-04T01:23:40.129Z,25.9700
2022-09-04T01:23:51.268Z,25.9500
2022-09-04T01:24:02.454Z,25.9400
2022-09-04T01:24:13.671Z,25.9300
2022-09-04T01:24:24.859Z,25.9300
2022-09-04T01:24:36.020Z,25.9300
2022-09-04T01:24:47.153Z,25.9500
2022-09-04T01:24:58.283Z,25.9700
2022-09-04T01:25:09.431Z,25.9800
2022-09-04T01:25:20.569Z,25.9700
2022-09-04T01:25:31.749Z,25.9700
2022-09-04T01:25:43.081Z,25.9800
2022-09-04T01:25:54.218Z,25.9800
2022-09-04T01:26:05.348Z,25.9800
2022-09-04T01:26:16.533Z,25.9700
2022-09-04T01:26:27.745Z,25.9600
2022-09-04T01:26:38.940Z,25.9500
2022-09-04T01:26:50.072Z,25.9500
2022-09-04T01:27:01.203Z,25.9500
2022-09-04T01:27:12.339Z,25.9400
2022-09-04T01:27:23.469Z,25.9400
2022-09-04T01:27:34.595Z,25.9400
2022-09-04T01:27:45.877Z,25.9400
2022-09-04T01:27:57.016Z,25.9400
2022-09-04T01:28:08.219Z,25.9400
2022-09-04T01:28:19.494Z,25.9500
2022-09-04T01:28:30.693Z,25.9600
2022-09-04T01:28:41.862Z,25.9700
2022-09-04T01:28:53.024Z,25.9700
2022-09-04T01:29:04.229Z,25.9700
2022-09-04T01:29:15.416Z,25.9800
2022-09-04T01:29:26.622Z,25.9800
2022-09-04T01:29:37.932Z,25.9800
2022-09-04T01:29:49.220Z,25.9700
2022-09-04T01:30:00.367Z,25.9700
2022-09-04T01:30:11.510Z,25.9700
2022-09-04T01:30:22.636Z,25.9800
2022-09-04T01:30:33.819Z,25.9800
2022-09-04T01:30:45.017Z,25.9900
2022-09-04T01:30:56.214Z,25.9800
2022-09-04T01:31:07.418Z,25.9700
2022-09-04T01:31:18.636Z,25.9500
2022-09-04T01:31:29.878Z,25.9500
2022-09-04T01:31:41.054Z,25.9400
2022-09-04T01:31:52.455Z,25.9400
2022-09-04T01:32:03.638Z,25.9400
2022-09-04T01:32:14.671Z,25.9300
2022-09-04T01:32:26.469Z,25.9100
2022-09-04T01:32:37.663Z,25.8900
2022-09-04T01:32:48.864Z,25.8800
2022-09-04T01:33:00.058Z,25.8800
2022-09-04T01:33:11.261Z,25.8700
2022-09-04T01:33:22.462Z,25.8700
2022-09-04T01:33:33.661Z,25.8700
2022-09-04T01:33:44.858Z,25.8700
2022-09-04T01:33:56.055Z,25.8700
2022-09-04T01:34:07.327Z,25.8700
2022-09-04T01:34:18.472Z,25.8800
2022-09-04T01:34:29.654Z,25.8900
2022-09-04T01:34:40.913Z,25.8900
2022-09-04T01:34:52.048Z,25.8900
2022-09-04T01:35:03.260Z,25.8800
2022-09-04T01:35:14.399Z,25.8800
2022-09-04T01:35:25.532Z,25.8800
2022-09-04T01:35:36.668Z,25.8800
2022-09-04T01:35:47.803Z,25.8800
2022-09-04T01:35:58.926Z,25.8700
2022-09-04T01:36:10.340Z,25.8600
2022-09-04T01:36:21.477Z,25.8500
2022-09-04T01:36:32.606Z,25.8300
2022-09-04T01:36:43.724Z,25.8300
2022-09-04T01:36:54.849Z,25.8200
2022-09-04T01:37:05.987Z,25.8200
2022-09-04T01:37:17.109Z,25.8200
2022-09-04T01:37:28.249Z,25.8300
2022-09-04T01:37:39.416Z,25.8400
2022-09-04T01:37:50.613Z,25.8500
2022-09-04T01:38:01.823Z,25.8600
2022-09-04T01:38:14.126Z,25.8600
2022-09-04T01:38:25.445Z,25.8500
2022-09-04T01:38:36.699Z,25.8600
2022-09-04T01:38:47.893Z,25.8600
2022-09-04T01:38:58.957Z,25.8700
2022-09-04T01:39:10.088Z,25.8800
2022-09-04T01:39:21.334Z,25.9000
2022-09-04T01:39:32.546Z,25.9200
2022-09-04T01:39:43.745Z,25.9300
2022-09-04T01:39:54.954Z,25.9300
2022-09-04T01:40:06.229Z,25.9400
2022-09-04T01:40:17.507Z,25.9400
2022-09-04T01:40:35.227Z,25.9300
2022-09-04T01:40:45.873Z,25.9200
2022-09-04T01:40:57.001Z,25.8900
2022-09-04T01:41:08.125Z,25.8900
2022-09-04T01:41:19.257Z,25.8800
2022-09-04T01:41:33.943Z,25.8800
2022-09-04T01:41:47.487Z,25.8700
2022-09-04T01:41:58.616Z,25.8600
2022-09-04T01:42:09.750Z,25.8700
2022-09-04T01:42:20.888Z,25.8900
2022-09-04T01:42:32.030Z,25.9000
2022-09-04T01:42:43.311Z,25.9100
2022-09-04T01:42:54.527Z,25.9200
2022-09-04T01:43:05.674Z,25.9100
2022-09-04T01:43:16.812Z,25.9100
2022-09-04T01:43:27.937Z,25.9100
2022-09-04T01:43:39.095Z,25.9000
2022-09-04T01:43:50.339Z,25.9000
2022-09-04T01:44:01.506Z,25.9000
2022-09-04T01:44:12.696Z,25.8900
2022-09-04T01:44:23.825Z,25.9000
2022-09-04T01:44:34.965Z,25.9000
2022-09-04T01:44:46.277Z,25.9100
2022-09-04T01:44:57.414Z,25.9200
2022-09-04T01:45:08.541Z,25.9200
2022-09-04T01:45:19.692Z,25.9400
2022-09-04T01:45:30.869Z,25.9500
2022-09-04T01:45:42.018Z,25.9500
2022-09-04T01:45:53.370Z,25.9500
2022-09-04T01:46:04.565Z,25.9400
2022-09-04T01:46:15.648Z,25.9300
2022-09-04T01:46:26.778Z,25.9200
2022-09-04T01:46:37.907Z,25.9200
2022-09-04T01:46:49.179Z,25.9300
2022-09-04T01:47:00.375Z,25.9400
2022-09-04T01:47:11.596Z,25.9400
2022-09-04T01:47:22.773Z,25.9500
2022-09-04T01:47:33.896Z,25.9600
2022-09-04T01:47:45.026Z,25.9700
2022-09-04T01:47:56.156Z,25.9700
2022-09-04T01:48:07.283Z,25.9800
2022-09-04T01:48:18.549Z,25.9700
2022-09-04T01:48:29.674Z,25.9600
2022-09-04T01:48:40.852Z,25.9500
2022-09-04T01:48:52.141Z,25.9400
2022-09-04T01:49:03.269Z,25.9300
2022-09-04T01:49:14.459Z,25.9300
2022-09-04T01:49:25.668Z,25.9400
2022-09-04T01:49:36.856Z,25.9400
2022-09-04T01:49:48.084Z,25.9500
2022-09-04T01:49:59.262Z,25.9600
2022-09-04T01:50:10.469Z,25.9600
2022-09-04T01:50:21.666Z,25.9700
2022-09-04T01:50:32.856Z,25.9700
2022-09-04T01:50:44.060Z,25.9700
2022-09-04T01:50:55.408Z,25.9700
2022-09-04T01:51:06.536Z,25.9600
2022-09-04T01:51:17.657Z,25.9500
2022-09-04T01:51:28.865Z,25.9400
2022-09-04T01:51:40.059Z,25.9200
2022-09-04T01:51:51.258Z,25.9000
2022-09-04T01:52:02.384Z,25.8800
2022-09-04T01:52:13.527Z,25.8600
2022-09-04T01:52:24.669Z,25.8400
2022-09-04T01:52:35.807Z,25.8300
2022-09-04T01:52:46.950Z,25.8200
2022-09-04T01:52:58.277Z,25.8200
2022-09-04T01:53:09.417Z,25.8200
2022-09-04T01:53:20.556Z,25.8200
2022-09-04T01:53:33.037Z,25.8300
2022-09-04T01:53:44.308Z,25.8300
2022-09-04T01:53:56.071Z,25.8200
2022-09-04T01:54:07.251Z,25.8200
2022-09-04T01:54:18.376Z,25.8300
2022-09-04T01:54:29.524Z,25.8200
2022-09-04T01:54:40.658Z,25.8300
2022-09-04T01:54:51.832Z,25.8400
2022-09-04T01:55:03.117Z,25.8500
2022-09-04T01:55:14.253Z,25.8500
2022-09-04T01:55:25.380Z,25.8500
2022-09-04T01:55:36.549Z,25.8500
2022-09-04T01:55:47.743Z,25.8600
2022-09-04T01:55:58.944Z,25.8700
2022-09-04T01:56:10.133Z,25.8700
2022-09-04T01:56:21.275Z,25.8800
2022-09-04T01:56:32.407Z,25.8800
2022-09-04T01:56:43.553Z,25.8900
2022-09-04T01:56:54.695Z,25.9000
2022-09-04T01:57:05.965Z,25.9100
2022-09-04T01:57:17.108Z,25.9200
2022-09-04T01:57:28.245Z,25.9200
2022-09-04T01:57:39.431Z,25.9300
2022-09-04T01:57:50.641Z,25.9300
2022-09-04T01:58:01.817Z,25.9400
2022-09-04T01:58:13.020Z,25.9500
2022-09-04T01:58:24.353Z,25.9600
2022-09-04T01:58:35.515Z,25.9600
2022-09-04T01:58:46.660Z,25.9700
2022-09-04T01:58:57.816Z,25.9700
2022-09-04T01:59:09.167Z,25.9700
2022-09-04T01:59:20.292Z,25.9800
2022-09-04T01:59:31.418Z,25.9800
2022-09-04T01:59:42.558Z,25.9900
2022-09-04T01:59:53.936Z,25.9900
2022-09-04T02:00:05.055Z,25.9900
2022-09-04T02:00:16.203Z,25.9900
2022-09-04T02:00:27.347Z,25.9800
2022-09-04T02:00:38.479Z,25.9700
2022-09-04T02:00:49.685Z,25.9500
2022-09-04T02:01:00.857Z,25.9300
2022-09-04T02:01:13.802Z,25.9200
2022-09-04T02:01:26.886Z,25.9000
2022-09-04T02:01:37.983Z,25.9000
2022-09-04T02:01:49.148Z,25.9100
2022-09-04T02:02:00.326Z,25.9100
2022-09-04T02:02:11.527Z,25.9100
2022-09-04T02:02:22.762Z,25.9000
2022-09-04T02:02:33.931Z,25.9000
2022-09-04T02:02:45.047Z,25.9000
2022-09-04T02:02:58.462Z,25.9000
2022-09-04T02:03:09.657Z,25.8900
2022-09-04T02:03:20.992Z,25.8800
2022-09-04T02:03:32.122Z,25.8800
2022-09-04T02:03:43.261Z,25.8700
2022-09-04T02:03:54.455Z,25.8700
2022-09-04T02:04:05.584Z,25.8600
2022-09-04T02:04:16.721Z,25.8400
2022-09-04T02:04:27.850Z,25.8300
2022-09-04T02:04:38.986Z,25.8200
2022-09-04T02:04:50.125Z,25.8100
2022-09-04T02:05:05.038Z,25.8000
2022-09-04T02:05:18.322Z,25.8000
2022-09-04T02:05:29.651Z,25.7800
2022-09-04T02:05:40.789Z,25.7900
2022-09-04T02:05:51.938Z,25.8000
2022-09-04T02:06:03.075Z,25.8100
2022-09-04T02:06:14.199Z,25.8300
2022-09-04T02:06:25.335Z,25.8400
2022-09-04T02:06:36.467Z,25.8500
2022-09-04T02:06:47.597Z,25.8600
2022-09-04T02:06:58.768Z,25.8700
2022-09-04T02:07:09.893Z,25.8800
2022-09-04T02:07:21.028Z,25.8800
2022-09-04T02:07:32.313Z,25.8900
2022-09-04T02:07:43.443Z,25.9000
2022-09-04T02:07:54.560Z,25.9100
2022-09-04T02:08:05.688Z,25.9100
2022-09-04T02:08:16.857Z,25.9100
2022-09-04T02:08:28.054Z,25.9000
2022-09-04T02:08:39.173Z,25.9000
2022-09-04T02:08:50.286Z,25.9000
2022-09-04T02:09:01.413Z,25.9000
2022-09-04T02:09:12.545Z,25.8900
2022-09-04T02:09:23.736Z,25.8800
2022-09-04T02:09:35.007Z,25.8700
2022-09-04T02:09:46.146Z,25.8600
2022-09-04T02:09:57.331Z,25.8500
2022-09-04T02:10:08.574Z,25.8400
2022-09-04T02:10:19.740Z,25.8400
2022-09-04T02:10:30.861Z,25.8300
2022-09-04T02:10:42.003Z,25.8400
2022-09-04T02:10:53.135Z,25.8500
2022-09-04T02:11:04.275Z,25.8600
2022-09-04T02:11:15.396Z,25.8700
2022-09-04T02:11:28.156Z,25.8800
2022-09-04T02:11:39.695Z,25.8900
2022-09-04T02:11:51.252Z,25.8900
2022-09-04T02:12:08.838Z,25.9000
2022-09-04T02:12:20.213Z,25.8900
2022-09-04T02:12:31.375Z,25.8900
2022-09-04T02:12:42.498Z,25.9000
2022-09-04T02:12:53.646Z,25.9100
2022-09-04T02:13:04.735Z,25.9300
2022-09-04T02:13:15.868Z,25.9400
2022-09-04T02:13:27.007Z,25.9400
2022-09-04T02:13:38.126Z,25.9400
2022-09-04T02:13:49.395Z,25.9300
2022-09-04T02:14:00.531Z,25.9300
2022-09-04T02:14:11.736Z,25.9200
2022-09-04T02:14:22.870Z,25.9200
2022-09-04T02:14:34.015Z,25.9200
2022-09-04T02:14:45.146Z,25.9200
2022-09-04T02:14:56.272Z,25.9300
2022-09-04T02:15:07.402Z,25.9300
2022-09-04T02:15:18.552Z,25.9400
2022-09-04T02:15:29.681Z,25.9500
2022-09-04T02:15:40.811Z,25.9500
2022-09-04T02:15:52.098Z,25.9500
2022-09-04T02:16:03.247Z,25.9500
2022-09-04T02:16:14.390Z,25.9500
2022-09-04T02:16:25.610Z,25.9500
2022-09-04T02:16:36.841Z,25.9400
2022-09-04T02:16:48.054Z,25.9400